sensor_id;sensor_type;location;lat;lon;timestamp;P1;durP1;ratioP1;P2;durP2;ratioP2
78072;SDS011;67281;48.770;11.440;2023-12-20T00:02:16;7.23;;;5.20;;
78072;SDS011;67281;48.770;11.440;2023-12-20T00:04:43;7.93;;;5.27;;
78072;SDS011;67281;48.770;11.440;2023-12-20T00:07:10;7.70;;;5.23;;
78072;SDS011;67281;48.770;11.440;2023-12-20T00:09:37;8.43;;;5.50;;
78072;SDS011;67281;48.770;11.440;2023-12-20T00:12:04;7.70;;;5.57;;
78072;SDS011;67281;48.770;11.440;2023-12-20T00:14:31;11.47;;;5.50;;
78072;SDS011;67281;48.770;11.440;2023-12-20T00:16:58;8.63;;;5.40;;
78072;SDS011;67281;48.770;11.440;2023-12-20T00:19:24;8.17;;;5.50;;
78072;SDS011;67281;48.770;11.440;2023-12-20T00:21:51;8.43;;;5.53;;
78072;SDS011;67281;48.770;11.440;2023-12-20T00:24:18;7.70;;;5.30;;
78072;SDS011;67281;48.770;11.440;2023-12-20T00:26:45;8.03;;;5.00;;
78072;SDS011;67281;48.770;11.440;2023-12-20T00:29:12;6.67;;;5.27;;
78072;SDS011;67281;48.770;11.440;2023-12-20T00:31:39;7.73;;;5.20;;
78072;SDS011;67281;48.770;11.440;2023-12-20T00:34:06;7.63;;;5.13;;
78072;SDS011;67281;48.770;11.440;2023-12-20T00:36:33;6.43;;;4.47;;
78072;SDS011;67281;48.770;11.440;2023-12-20T00:39:00;6.83;;;4.97;;
78072;SDS011;67281;48.770;11.440;2023-12-20T00:41:26;7.23;;;5.40;;
78072;SDS011;67281;48.770;11.440;2023-12-20T00:43:53;6.63;;;4.90;;
78072;SDS011;67281;48.770;11.440;2023-12-20T00:46:20;7.87;;;5.10;;
78072;SDS011;67281;48.770;11.440;2023-12-20T00:48:47;7.73;;;4.70;;
78072;SDS011;67281;48.770;11.440;2023-12-20T00:51:14;7.63;;;5.20;;
78072;SDS011;67281;48.770;11.440;2023-12-20T00:53:40;7.73;;;5.17;;
78072;SDS011;67281;48.770;11.440;2023-12-20T00:56:07;8.00;;;4.90;;
78072;SDS011;67281;48.770;11.440;2023-12-20T00:58:34;7.70;;;4.73;;
78072;SDS011;67281;48.770;11.440;2023-12-20T01:01:01;6.13;;;4.60;;
78072;SDS011;67281;48.770;11.440;2023-12-20T01:03:28;7.83;;;4.77;;
78072;SDS011;67281;48.770;11.440;2023-12-20T01:05:55;7.07;;;4.87;;
78072;SDS011;67281;48.770;11.440;2023-12-20T01:08:22;7.33;;;4.80;;
78072;SDS011;67281;48.770;11.440;2023-12-20T01:10:49;6.57;;;4.63;;
78072;SDS011;67281;48.770;11.440;2023-12-20T01:13:16;8.47;;;4.57;;
78072;SDS011;67281;48.770;11.440;2023-12-20T01:15:43;7.53;;;4.60;;
78072;SDS011;67281;48.770;11.440;2023-12-20T01:18:10;5.90;;;4.30;;
78072;SDS011;67281;48.770;11.440;2023-12-20T01:20:37;6.10;;;4.40;;
78072;SDS011;67281;48.770;11.440;2023-12-20T01:23:03;5.47;;;3.80;;
78072;SDS011;67281;48.770;11.440;2023-12-20T01:25:30;6.50;;;4.17;;
78072;SDS011;67281;48.770;11.440;2023-12-20T01:27:57;6.30;;;4.17;;
78072;SDS011;67281;48.770;11.440;2023-12-20T01:30:24;6.50;;;4.07;;
78072;SDS011;67281;48.770;11.440;2023-12-20T01:32:51;6.53;;;4.07;;
78072;SDS011;67281;48.770;11.440;2023-12-20T01:35:18;4.90;;;3.40;;
78072;SDS011;67281;48.770;11.440;2023-12-20T01:37:45;6.30;;;3.97;;
78072;SDS011;67281;48.770;11.440;2023-12-20T01:40:12;7.20;;;3.93;;
78072;SDS011;67281;48.770;11.440;2023-12-20T01:42:39;5.97;;;4.33;;
78072;SDS011;67281;48.770;11.440;2023-12-20T01:45:06;6.07;;;3.70;;
78072;SDS011;67281;48.770;11.440;2023-12-20T01:47:35;7.70;;;4.03;;
78072;SDS011;67281;48.770;11.440;2023-12-20T01:50:02;6.23;;;4.50;;
78072;SDS011;67281;48.770;11.440;2023-12-20T01:52:32;9.20;;;4.10;;
78072;SDS011;67281;48.770;11.440;2023-12-20T01:55:00;5.90;;;4.23;;
78072;SDS011;67281;48.770;11.440;2023-12-20T01:57:30;5.50;;;4.00;;
78072;SDS011;67281;48.770;11.440;2023-12-20T01:59:57;5.90;;;4.27;;
78072;SDS011;67281;48.770;11.440;2023-12-20T02:02:25;6.77;;;4.17;;
78072;SDS011;67281;48.770;11.440;2023-12-20T02:04:54;6.27;;;4.27;;
78072;SDS011;67281;48.770;11.440;2023-12-20T02:07:22;7.10;;;4.60;;
78072;SDS011;67281;48.770;11.440;2023-12-20T02:09:49;6.73;;;4.53;;
78072;SDS011;67281;48.770;11.440;2023-12-20T02:12:16;6.70;;;4.47;;
78072;SDS011;67281;48.770;11.440;2023-12-20T02:14:44;6.77;;;4.30;;
78072;SDS011;67281;48.770;11.440;2023-12-20T02:17:13;6.37;;;3.90;;
78072;SDS011;67281;48.770;11.440;2023-12-20T02:19:39;8.13;;;4.37;;
78072;SDS011;67281;48.770;11.440;2023-12-20T02:22:07;6.40;;;4.37;;
78072;SDS011;67281;48.770;11.440;2023-12-20T02:24:38;5.57;;;4.13;;
78072;SDS011;67281;48.770;11.440;2023-12-20T02:27:05;7.37;;;4.47;;
78072;SDS011;67281;48.770;11.440;2023-12-20T02:29:34;7.20;;;4.40;;
78072;SDS011;67281;48.770;11.440;2023-12-20T02:32:01;6.17;;;4.67;;
78072;SDS011;67281;48.770;11.440;2023-12-20T02:34:29;6.37;;;4.20;;
78072;SDS011;67281;48.770;11.440;2023-12-20T02:36:56;6.87;;;4.40;;
78072;SDS011;67281;48.770;11.440;2023-12-20T02:39:23;6.83;;;4.40;;
78072;SDS011;67281;48.770;11.440;2023-12-20T02:41:50;8.60;;;5.00;;
78072;SDS011;67281;48.770;11.440;2023-12-20T02:44:17;8.23;;;4.50;;
78072;SDS011;67281;48.770;11.440;2023-12-20T02:46:44;6.63;;;4.37;;
78072;SDS011;67281;48.770;11.440;2023-12-20T02:49:11;9.93;;;4.37;;
78072;SDS011;67281;48.770;11.440;2023-12-20T02:51:38;9.00;;;3.97;;
78072;SDS011;67281;48.770;11.440;2023-12-20T02:54:05;5.60;;;4.07;;
78072;SDS011;67281;48.770;11.440;2023-12-20T02:56:33;6.33;;;3.53;;
78072;SDS011;67281;48.770;11.440;2023-12-20T02:59:00;4.63;;;3.23;;
78072;SDS011;67281;48.770;11.440;2023-12-20T03:01:28;5.17;;;3.17;;
78072;SDS011;67281;48.770;11.440;2023-12-20T03:03:56;5.20;;;3.10;;
78072;SDS011;67281;48.770;11.440;2023-12-20T03:06:23;5.43;;;3.60;;
78072;SDS011;67281;48.770;11.440;2023-12-20T03:08:51;5.50;;;3.10;;
78072;SDS011;67281;48.770;11.440;2023-12-20T03:11:18;4.50;;;3.17;;
78072;SDS011;67281;48.770;11.440;2023-12-20T03:13:45;4.50;;;3.00;;
78072;SDS011;67281;48.770;11.440;2023-12-20T03:16:12;3.77;;;2.77;;
78072;SDS011;67281;48.770;11.440;2023-12-20T03:18:40;3.87;;;2.90;;
78072;SDS011;67281;48.770;11.440;2023-12-20T03:21:07;5.70;;;3.07;;
78072;SDS011;67281;48.770;11.440;2023-12-20T03:23:34;5.57;;;3.20;;
78072;SDS011;67281;48.770;11.440;2023-12-20T03:26:01;4.80;;;3.57;;
78072;SDS011;67281;48.770;11.440;2023-12-20T03:28:28;4.80;;;3.10;;
78072;SDS011;67281;48.770;11.440;2023-12-20T03:30:56;5.73;;;3.43;;
78072;SDS011;67281;48.770;11.440;2023-12-20T03:33:23;4.47;;;3.30;;
78072;SDS011;67281;48.770;11.440;2023-12-20T03:35:49;4.40;;;3.07;;
78072;SDS011;67281;48.770;11.440;2023-12-20T03:38:16;5.00;;;3.40;;
78072;SDS011;67281;48.770;11.440;2023-12-20T03:40:43;5.63;;;3.80;;
78072;SDS011;67281;48.770;11.440;2023-12-20T03:43:10;5.00;;;3.47;;
78072;SDS011;67281;48.770;11.440;2023-12-20T03:45:37;4.80;;;3.57;;
78072;SDS011;67281;48.770;11.440;2023-12-20T03:48:04;5.53;;;4.10;;
78072;SDS011;67281;48.770;11.440;2023-12-20T03:50:32;5.57;;;3.87;;
78072;SDS011;67281;48.770;11.440;2023-12-20T03:52:59;5.40;;;3.27;;
78072;SDS011;67281;48.770;11.440;2023-12-20T03:55:25;5.13;;;3.40;;
78072;SDS011;67281;48.770;11.440;2023-12-20T03:57:52;5.43;;;4.30;;
78072;SDS011;67281;48.770;11.440;2023-12-20T04:00:20;6.97;;;4.17;;
78072;SDS011;67281;48.770;11.440;2023-12-20T04:02:46;6.53;;;4.50;;
78072;SDS011;67281;48.770;11.440;2023-12-20T04:05:13;6.50;;;5.10;;
78072;SDS011;67281;48.770;11.440;2023-12-20T04:07:41;5.23;;;3.80;;
78072;SDS011;67281;48.770;11.440;2023-12-20T04:10:08;6.37;;;4.03;;
78072;SDS011;67281;48.770;11.440;2023-12-20T04:12:35;6.63;;;4.90;;
78072;SDS011;67281;48.770;11.440;2023-12-20T04:15:02;6.53;;;5.07;;
78072;SDS011;67281;48.770;11.440;2023-12-20T04:17:36;7.60;;;4.17;;
78072;SDS011;67281;48.770;11.440;2023-12-20T04:20:03;6.60;;;4.60;;
78072;SDS011;67281;48.770;11.440;2023-12-20T04:22:31;5.33;;;3.40;;
78072;SDS011;67281;48.770;11.440;2023-12-20T04:24:57;5.47;;;3.83;;
78072;SDS011;67281;48.770;11.440;2023-12-20T04:27:24;7.30;;;4.20;;
78072;SDS011;67281;48.770;11.440;2023-12-20T04:29:51;5.13;;;4.10;;
78072;SDS011;67281;48.770;11.440;2023-12-20T04:32:18;7.77;;;4.70;;
78072;SDS011;67281;48.770;11.440;2023-12-20T04:34:45;6.47;;;4.97;;
78072;SDS011;67281;48.770;11.440;2023-12-20T04:37:12;8.90;;;4.87;;
78072;SDS011;67281;48.770;11.440;2023-12-20T04:39:39;7.17;;;4.90;;
78072;SDS011;67281;48.770;11.440;2023-12-20T04:42:07;6.87;;;4.80;;
78072;SDS011;67281;48.770;11.440;2023-12-20T04:44:34;8.40;;;4.87;;
78072;SDS011;67281;48.770;11.440;2023-12-20T04:47:01;7.03;;;4.83;;
78072;SDS011;67281;48.770;11.440;2023-12-20T04:49:28;8.47;;;3.70;;
78072;SDS011;67281;48.770;11.440;2023-12-20T04:51:54;9.30;;;4.03;;
78072;SDS011;67281;48.770;11.440;2023-12-20T04:54:22;6.17;;;4.77;;
78072;SDS011;67281;48.770;11.440;2023-12-20T04:56:49;6.93;;;4.63;;
78072;SDS011;67281;48.770;11.440;2023-12-20T04:59:16;7.13;;;4.40;;
78072;SDS011;67281;48.770;11.440;2023-12-20T05:01:43;5.63;;;3.97;;
78072;SDS011;67281;48.770;11.440;2023-12-20T05:04:10;6.77;;;3.97;;
78072;SDS011;67281;48.770;11.440;2023-12-20T05:06:36;5.23;;;3.60;;
78072;SDS011;67281;48.770;11.440;2023-12-20T05:09:04;6.57;;;4.33;;
78072;SDS011;67281;48.770;11.440;2023-12-20T05:11:31;5.83;;;3.73;;
78072;SDS011;67281;48.770;11.440;2023-12-20T05:13:57;6.17;;;4.27;;
78072;SDS011;67281;48.770;11.440;2023-12-20T05:16:24;6.53;;;3.20;;
78072;SDS011;67281;48.770;11.440;2023-12-20T05:18:51;5.50;;;3.90;;
78072;SDS011;67281;48.770;11.440;2023-12-20T05:21:19;4.77;;;3.67;;
78072;SDS011;67281;48.770;11.440;2023-12-20T05:23:46;6.63;;;4.50;;
78072;SDS011;67281;48.770;11.440;2023-12-20T05:26:13;6.73;;;4.43;;
78072;SDS011;67281;48.770;11.440;2023-12-20T05:28:40;5.03;;;3.60;;
78072;SDS011;67281;48.770;11.440;2023-12-20T05:31:07;6.90;;;4.00;;
78072;SDS011;67281;48.770;11.440;2023-12-20T05:33:34;6.00;;;3.80;;
78072;SDS011;67281;48.770;11.440;2023-12-20T05:36:01;5.87;;;4.13;;
78072;SDS011;67281;48.770;11.440;2023-12-20T05:38:28;5.63;;;3.50;;
78072;SDS011;67281;48.770;11.440;2023-12-20T05:40:56;5.00;;;3.90;;
78072;SDS011;67281;48.770;11.440;2023-12-20T05:43:26;4.63;;;3.80;;
78072;SDS011;67281;48.770;11.440;2023-12-20T05:45:52;4.93;;;3.80;;
78072;SDS011;67281;48.770;11.440;2023-12-20T05:48:19;4.70;;;3.53;;
78072;SDS011;67281;48.770;11.440;2023-12-20T05:50:47;7.13;;;4.53;;
78072;SDS011;67281;48.770;11.440;2023-12-20T05:53:14;6.73;;;4.03;;
78072;SDS011;67281;48.770;11.440;2023-12-20T05:55:41;5.33;;;4.30;;
78072;SDS011;67281;48.770;11.440;2023-12-20T05:58:14;6.60;;;4.53;;
78072;SDS011;67281;48.770;11.440;2023-12-20T06:00:41;8.80;;;5.23;;
78072;SDS011;67281;48.770;11.440;2023-12-20T06:03:08;6.73;;;5.17;;
78072;SDS011;67281;48.770;11.440;2023-12-20T06:05:35;6.53;;;4.93;;
78072;SDS011;67281;48.770;11.440;2023-12-20T06:08:01;6.83;;;5.90;;
78072;SDS011;67281;48.770;11.440;2023-12-20T06:10:29;6.60;;;4.70;;
78072;SDS011;67281;48.770;11.440;2023-12-20T06:12:56;7.53;;;5.60;;
78072;SDS011;67281;48.770;11.440;2023-12-20T06:15:25;7.90;;;5.47;;
78072;SDS011;67281;48.770;11.440;2023-12-20T06:17:52;6.47;;;5.33;;
78072;SDS011;67281;48.770;11.440;2023-12-20T06:20:19;6.47;;;4.80;;
78072;SDS011;67281;48.770;11.440;2023-12-20T06:22:46;8.90;;;4.90;;
78072;SDS011;67281;48.770;11.440;2023-12-20T06:25:13;6.67;;;4.90;;
78072;SDS011;67281;48.770;11.440;2023-12-20T06:27:40;6.37;;;4.70;;
78072;SDS011;67281;48.770;11.440;2023-12-20T06:30:08;8.53;;;5.47;;
78072;SDS011;67281;48.770;11.440;2023-12-20T06:32:35;9.73;;;5.70;;
78072;SDS011;67281;48.770;11.440;2023-12-20T06:35:04;6.03;;;5.23;;
78072;SDS011;67281;48.770;11.440;2023-12-20T06:37:31;6.33;;;4.70;;
78072;SDS011;67281;48.770;11.440;2023-12-20T06:39:58;7.13;;;5.43;;
78072;SDS011;67281;48.770;11.440;2023-12-20T06:42:25;7.57;;;5.77;;
78072;SDS011;67281;48.770;11.440;2023-12-20T06:44:52;6.80;;;5.00;;
78072;SDS011;67281;48.770;11.440;2023-12-20T06:47:19;5.60;;;4.90;;
78072;SDS011;67281;48.770;11.440;2023-12-20T06:49:46;6.47;;;5.17;;
78072;SDS011;67281;48.770;11.440;2023-12-20T06:52:13;7.43;;;6.00;;
78072;SDS011;67281;48.770;11.440;2023-12-20T06:54:40;7.43;;;5.50;;
78072;SDS011;67281;48.770;11.440;2023-12-20T06:57:07;8.00;;;5.00;;
78072;SDS011;67281;48.770;11.440;2023-12-20T06:59:37;7.27;;;5.23;;
78072;SDS011;67281;48.770;11.440;2023-12-20T07:02:10;6.60;;;5.27;;
78072;SDS011;67281;48.770;11.440;2023-12-20T07:04:41;7.53;;;4.37;;
78072;SDS011;67281;48.770;11.440;2023-12-20T07:07:09;6.00;;;5.00;;
78072;SDS011;67281;48.770;11.440;2023-12-20T07:09:37;6.70;;;5.27;;
78072;SDS011;67281;48.770;11.440;2023-12-20T07:12:05;5.17;;;3.70;;
78072;SDS011;67281;48.770;11.440;2023-12-20T07:14:32;5.83;;;3.50;;
78072;SDS011;67281;48.770;11.440;2023-12-20T07:16:59;4.70;;;3.53;;
78072;SDS011;67281;48.770;11.440;2023-12-20T07:19:26;4.90;;;3.50;;
78072;SDS011;67281;48.770;11.440;2023-12-20T07:21:54;4.43;;;3.43;;
78072;SDS011;67281;48.770;11.440;2023-12-20T07:24:21;5.37;;;3.63;;
78072;SDS011;67281;48.770;11.440;2023-12-20T07:26:48;5.53;;;3.70;;
78072;SDS011;67281;48.770;11.440;2023-12-20T07:29:15;4.80;;;3.10;;
78072;SDS011;67281;48.770;11.440;2023-12-20T07:31:42;4.30;;;2.87;;
78072;SDS011;67281;48.770;11.440;2023-12-20T07:34:09;6.07;;;3.50;;
78072;SDS011;67281;48.770;11.440;2023-12-20T07:36:36;5.50;;;3.33;;
78072;SDS011;67281;48.770;11.440;2023-12-20T07:39:03;5.73;;;3.50;;
78072;SDS011;67281;48.770;11.440;2023-12-20T07:41:30;4.87;;;3.70;;
78072;SDS011;67281;48.770;11.440;2023-12-20T07:43:57;7.17;;;4.47;;
78072;SDS011;67281;48.770;11.440;2023-12-20T07:46:24;5.00;;;3.30;;
78072;SDS011;67281;48.770;11.440;2023-12-20T07:48:51;4.70;;;3.90;;
78072;SDS011;67281;48.770;11.440;2023-12-20T07:51:18;4.80;;;3.40;;
78072;SDS011;67281;48.770;11.440;2023-12-20T07:53:47;5.20;;;3.93;;
78072;SDS011;67281;48.770;11.440;2023-12-20T07:56:15;4.87;;;3.50;;
78072;SDS011;67281;48.770;11.440;2023-12-20T07:58:42;4.47;;;3.57;;
78072;SDS011;67281;48.770;11.440;2023-12-20T08:01:18;6.60;;;3.43;;
78072;SDS011;67281;48.770;11.440;2023-12-20T08:03:45;3.77;;;3.07;;
78072;SDS011;67281;48.770;11.440;2023-12-20T08:06:13;4.43;;;3.10;;
78072;SDS011;67281;48.770;11.440;2023-12-20T08:08:40;5.13;;;3.40;;
78072;SDS011;67281;48.770;11.440;2023-12-20T08:11:09;6.27;;;4.10;;
78072;SDS011;67281;48.770;11.440;2023-12-20T08:13:35;5.23;;;3.70;;
78072;SDS011;67281;48.770;11.440;2023-12-20T08:16:02;4.93;;;3.87;;
78072;SDS011;67281;48.770;11.440;2023-12-20T08:18:31;6.50;;;3.90;;
78072;SDS011;67281;48.770;11.440;2023-12-20T08:20:58;5.07;;;4.13;;
78072;SDS011;67281;48.770;11.440;2023-12-20T08:23:25;5.93;;;4.10;;
78072;SDS011;67281;48.770;11.440;2023-12-20T08:25:54;7.40;;;5.00;;
78072;SDS011;67281;48.770;11.440;2023-12-20T08:28:22;6.90;;;4.70;;
78072;SDS011;67281;48.770;11.440;2023-12-20T08:30:49;6.37;;;5.00;;
78072;SDS011;67281;48.770;11.440;2023-12-20T08:33:20;6.53;;;4.80;;
78072;SDS011;67281;48.770;11.440;2023-12-20T08:35:47;5.90;;;4.80;;
78072;SDS011;67281;48.770;11.440;2023-12-20T08:38:15;7.07;;;5.72;;
78072;SDS011;67281;48.770;11.440;2023-12-20T08:40:43;7.40;;;4.50;;
78072;SDS011;67281;48.770;11.440;2023-12-20T08:43:10;5.13;;;3.80;;
78072;SDS011;67281;48.770;11.440;2023-12-20T08:45:37;6.20;;;4.43;;
78072;SDS011;67281;48.770;11.440;2023-12-20T08:48:05;6.43;;;4.57;;
78072;SDS011;67281;48.770;11.440;2023-12-20T08:50:35;5.40;;;4.00;;
78072;SDS011;67281;48.770;11.440;2023-12-20T08:53:03;6.00;;;4.07;;
78072;SDS011;67281;48.770;11.440;2023-12-20T08:55:30;5.70;;;3.77;;
78072;SDS011;67281;48.770;11.440;2023-12-20T08:57:58;4.37;;;3.00;;
78072;SDS011;67281;48.770;11.440;2023-12-20T09:00:25;5.03;;;3.33;;
78072;SDS011;67281;48.770;11.440;2023-12-20T09:02:54;4.50;;;3.50;;
78072;SDS011;67281;48.770;11.440;2023-12-20T09:05:21;4.57;;;3.33;;
78072;SDS011;67281;48.770;11.440;2023-12-20T09:07:49;3.83;;;2.73;;
78072;SDS011;67281;48.770;11.440;2023-12-20T09:10:16;4.10;;;3.10;;
78072;SDS011;67281;48.770;11.440;2023-12-20T09:12:49;7.40;;;3.90;;
78072;SDS011;67281;48.770;11.440;2023-12-20T09:15:23;3.70;;;2.83;;
78072;SDS011;67281;48.770;11.440;2023-12-20T09:17:52;4.20;;;2.70;;
78072;SDS011;67281;48.770;11.440;2023-12-20T09:20:19;5.77;;;3.50;;
78072;SDS011;67281;48.770;11.440;2023-12-20T09:22:47;5.33;;;3.60;;
78072;SDS011;67281;48.770;11.440;2023-12-20T09:25:14;4.73;;;3.20;;
78072;SDS011;67281;48.770;11.440;2023-12-20T09:27:42;3.27;;;2.37;;
78072;SDS011;67281;48.770;11.440;2023-12-20T09:30:09;5.30;;;2.80;;
78072;SDS011;67281;48.770;11.440;2023-12-20T09:32:36;3.83;;;2.77;;
78072;SDS011;67281;48.770;11.440;2023-12-20T09:35:03;3.20;;;2.33;;
78072;SDS011;67281;48.770;11.440;2023-12-20T09:37:33;3.07;;;2.63;;
78072;SDS011;67281;48.770;11.440;2023-12-20T09:39:59;3.73;;;2.57;;
78072;SDS011;67281;48.770;11.440;2023-12-20T09:45:23;3.60;;;2.83;;
78072;SDS011;67281;48.770;11.440;2023-12-20T09:47:54;4.50;;;2.53;;
78072;SDS011;67281;48.770;11.440;2023-12-20T09:50:22;3.63;;;3.00;;
78072;SDS011;67281;48.770;11.440;2023-12-20T09:52:50;4.90;;;2.73;;
78072;SDS011;67281;48.770;11.440;2023-12-20T09:55:18;2.83;;;2.30;;
78072;SDS011;67281;48.770;11.440;2023-12-20T09:57:46;3.67;;;2.23;;
78072;SDS011;67281;48.770;11.440;2023-12-20T10:00:15;3.23;;;2.20;;
78072;SDS011;67281;48.770;11.440;2023-12-20T10:02:50;2.20;;;2.00;;
78072;SDS011;67281;48.770;11.440;2023-12-20T10:05:26;4.87;;;2.50;;
78072;SDS011;67281;48.770;11.440;2023-12-20T10:07:55;4.03;;;2.70;;
78072;SDS011;67281;48.770;11.440;2023-12-20T10:10:22;3.77;;;2.60;;
78072;SDS011;67281;48.770;11.440;2023-12-20T10:13:07;3.20;;;2.20;;
78072;SDS011;67281;48.770;11.440;2023-12-20T10:15:37;3.10;;;2.40;;
78072;SDS011;67281;48.770;11.440;2023-12-20T10:18:05;4.50;;;2.80;;
78072;SDS011;67281;48.770;11.440;2023-12-20T10:20:32;3.73;;;2.80;;
78072;SDS011;67281;48.770;11.440;2023-12-20T10:23:00;3.90;;;2.87;;
78072;SDS011;67281;48.770;11.440;2023-12-20T10:25:28;3.10;;;2.40;;
78072;SDS011;67281;48.770;11.440;2023-12-20T10:28:09;5.70;;;2.60;;
78072;SDS011;67281;48.770;11.440;2023-12-20T10:30:41;2.03;;;1.70;;
78072;SDS011;67281;48.770;11.440;2023-12-20T10:33:09;3.03;;;2.13;;
78072;SDS011;67281;48.770;11.440;2023-12-20T10:35:37;3.07;;;2.10;;
78072;SDS011;67281;48.770;11.440;2023-12-20T10:38:10;2.50;;;1.83;;
78072;SDS011;67281;48.770;11.440;2023-12-20T10:40:38;3.43;;;1.80;;
78072;SDS011;67281;48.770;11.440;2023-12-20T10:43:05;2.53;;;1.77;;
78072;SDS011;67281;48.770;11.440;2023-12-20T10:45:32;2.33;;;2.10;;
78072;SDS011;67281;48.770;11.440;2023-12-20T10:48:01;2.20;;;2.00;;
78072;SDS011;67281;48.770;11.440;2023-12-20T10:50:29;2.93;;;1.83;;
78072;SDS011;67281;48.770;11.440;2023-12-20T10:52:58;2.40;;;1.80;;
78072;SDS011;67281;48.770;11.440;2023-12-20T10:55:26;1.97;;;1.80;;
78072;SDS011;67281;48.770;11.440;2023-12-20T10:58:08;1.70;;;1.60;;
78072;SDS011;67281;48.770;11.440;2023-12-20T11:00:44;3.10;;;1.67;;
78072;SDS011;67281;48.770;11.440;2023-12-20T11:03:14;1.10;;;1.00;;
78072;SDS011;67281;48.770;11.440;2023-12-20T11:05:52;1.30;;;1.20;;
78072;SDS011;67281;48.770;11.440;2023-12-20T11:08:38;1.43;;;1.13;;
78072;SDS011;67281;48.770;11.440;2023-12-20T11:11:34;1.20;;;1.10;;
78072;SDS011;67281;48.770;11.440;2023-12-20T11:14:13;3.27;;;1.47;;
78072;SDS011;67281;48.770;11.440;2023-12-20T11:16:44;1.93;;;1.30;;
78072;SDS011;67281;48.770;11.440;2023-12-20T11:19:20;3.33;;;1.70;;
78072;SDS011;67281;48.770;11.440;2023-12-20T11:21:47;3.07;;;1.60;;
78072;SDS011;67281;48.770;11.440;2023-12-20T11:24:15;2.47;;;1.60;;
78072;SDS011;67281;48.770;11.440;2023-12-20T11:26:46;3.23;;;1.60;;
78072;SDS011;67281;48.770;11.440;2023-12-20T11:29:30;1.10;;;1.00;;
78072;SDS011;67281;48.770;11.440;2023-12-20T11:32:02;1.57;;;1.43;;
78072;SDS011;67281;48.770;11.440;2023-12-20T11:34:48;1.87;;;1.40;;
78072;SDS011;67281;48.770;11.440;2023-12-20T11:37:17;2.40;;;1.60;;
78072;SDS011;67281;48.770;11.440;2023-12-20T11:39:54;3.03;;;1.70;;
78072;SDS011;67281;48.770;11.440;2023-12-20T11:42:22;1.70;;;0.97;;
78072;SDS011;67281;48.770;11.440;2023-12-20T11:44:48;2.03;;;1.53;;
78072;SDS011;67281;48.770;11.440;2023-12-20T11:47:16;2.77;;;1.90;;
78072;SDS011;67281;48.770;11.440;2023-12-20T11:49:48;2.33;;;1.67;;
78072;SDS011;67281;48.770;11.440;2023-12-20T11:52:16;3.23;;;1.80;;
78072;SDS011;67281;48.770;11.440;2023-12-20T11:54:42;3.30;;;1.97;;
78072;SDS011;67281;48.770;11.440;2023-12-20T11:57:10;3.10;;;2.00;;
78072;SDS011;67281;48.770;11.440;2023-12-20T11:59:36;3.07;;;1.80;;
78072;SDS011;67281;48.770;11.440;2023-12-20T12:02:03;1.70;;;1.60;;
78072;SDS011;67281;48.770;11.440;2023-12-20T12:04:31;1.77;;;1.50;;
78072;SDS011;67281;48.770;11.440;2023-12-20T12:06:58;1.70;;;1.60;;
78072;SDS011;67281;48.770;11.440;2023-12-20T12:09:25;2.97;;;1.60;;
78072;SDS011;67281;48.770;11.440;2023-12-20T12:11:51;2.83;;;1.67;;
78072;SDS011;67281;48.770;11.440;2023-12-20T12:14:18;1.60;;;1.50;;
78072;SDS011;67281;48.770;11.440;2023-12-20T12:16:47;3.80;;;1.77;;
78072;SDS011;67281;48.770;11.440;2023-12-20T12:19:22;2.20;;;1.50;;
78072;SDS011;67281;48.770;11.440;2023-12-20T12:21:51;2.23;;;1.03;;
78072;SDS011;67281;48.770;11.440;2023-12-20T12:24:21;2.73;;;1.50;;
78072;SDS011;67281;48.770;11.440;2023-12-20T12:26:51;1.13;;;0.83;;
78072;SDS011;67281;48.770;11.440;2023-12-20T12:29:19;4.27;;;1.70;;
78072;SDS011;67281;48.770;11.440;2023-12-20T12:31:46;3.07;;;1.20;;
78072;SDS011;67281;48.770;11.440;2023-12-20T12:34:13;0.73;;;0.73;;
78072;SDS011;67281;48.770;11.440;2023-12-20T12:36:40;2.67;;;1.20;;
78072;SDS011;67281;48.770;11.440;2023-12-20T12:39:07;2.13;;;1.20;;
78072;SDS011;67281;48.770;11.440;2023-12-20T12:41:35;3.17;;;1.40;;
78072;SDS011;67281;48.770;11.440;2023-12-20T12:44:01;5.80;;;1.70;;
78072;SDS011;67281;48.770;11.440;2023-12-20T12:46:40;6.13;;;1.47;;
78072;SDS011;67281;48.770;11.440;2023-12-20T12:49:07;3.00;;;0.90;;
78072;SDS011;67281;48.770;11.440;2023-12-20T12:51:34;1.50;;;0.73;;
78072;SDS011;67281;48.770;11.440;2023-12-20T12:54:01;3.93;;;1.27;;
78072;SDS011;67281;48.770;11.440;2023-12-20T12:56:28;4.63;;;1.23;;
78072;SDS011;67281;48.770;11.440;2023-12-20T12:58:55;2.67;;;1.53;;
78072;SDS011;67281;48.770;11.440;2023-12-20T13:01:22;3.37;;;1.17;;
78072;SDS011;67281;48.770;11.440;2023-12-20T13:03:50;3.73;;;1.50;;
78072;SDS011;67281;48.770;11.440;2023-12-20T13:06:16;2.30;;;0.90;;
78072;SDS011;67281;48.770;11.440;2023-12-20T13:08:44;4.97;;;1.70;;
78072;SDS011;67281;48.770;11.440;2023-12-20T13:11:11;4.73;;;1.43;;
78072;SDS011;67281;48.770;11.440;2023-12-20T13:13:38;3.47;;;1.43;;
78072;SDS011;67281;48.770;11.440;2023-12-20T13:16:05;3.57;;;1.13;;
78072;SDS011;67281;48.770;11.440;2023-12-20T13:18:32;4.00;;;1.50;;
78072;SDS011;67281;48.770;11.440;2023-12-20T13:20:59;5.20;;;1.60;;
78072;SDS011;67281;48.770;11.440;2023-12-20T13:23:26;2.97;;;1.40;;
78072;SDS011;67281;48.770;11.440;2023-12-20T13:25:53;5.63;;;1.40;;
78072;SDS011;67281;48.770;11.440;2023-12-20T13:28:19;4.50;;;1.40;;
78072;SDS011;67281;48.770;11.440;2023-12-20T13:30:46;3.00;;;1.20;;
78072;SDS011;67281;48.770;11.440;2023-12-20T13:33:13;4.07;;;1.47;;
78072;SDS011;67281;48.770;11.440;2023-12-20T13:35:40;3.27;;;1.47;;
78072;SDS011;67281;48.770;11.440;2023-12-20T13:38:07;3.60;;;1.60;;
78072;SDS011;67281;48.770;11.440;2023-12-20T13:40:34;5.13;;;1.50;;
78072;SDS011;67281;48.770;11.440;2023-12-20T13:43:01;3.53;;;1.20;;
78072;SDS011;67281;48.770;11.440;2023-12-20T13:45:29;3.57;;;1.40;;
78072;SDS011;67281;48.770;11.440;2023-12-20T13:47:56;4.73;;;1.53;;
78072;SDS011;67281;48.770;11.440;2023-12-20T13:50:25;4.00;;;1.37;;
78072;SDS011;67281;48.770;11.440;2023-12-20T13:52:52;2.87;;;1.40;;
78072;SDS011;67281;48.770;11.440;2023-12-20T13:55:19;5.07;;;1.60;;
78072;SDS011;67281;48.770;11.440;2023-12-20T13:57:48;6.17;;;1.80;;
78072;SDS011;67281;48.770;11.440;2023-12-20T14:00:22;5.93;;;1.80;;
78072;SDS011;67281;48.770;11.440;2023-12-20T14:02:49;3.83;;;1.63;;
78072;SDS011;67281;48.770;11.440;2023-12-20T14:05:16;4.83;;;1.60;;
78072;SDS011;67281;48.770;11.440;2023-12-20T14:07:52;5.83;;;1.90;;
78072;SDS011;67281;48.770;11.440;2023-12-20T14:10:19;4.30;;;1.50;;
78072;SDS011;67281;48.770;11.440;2023-12-20T14:12:46;5.07;;;1.83;;
78072;SDS011;67281;48.770;11.440;2023-12-20T14:15:13;6.03;;;1.57;;
78072;SDS011;67281;48.770;11.440;2023-12-20T14:17:40;4.13;;;1.50;;
78072;SDS011;67281;48.770;11.440;2023-12-20T14:20:09;3.97;;;1.47;;
78072;SDS011;67281;48.770;11.440;2023-12-20T14:22:37;6.40;;;1.97;;
78072;SDS011;67281;48.770;11.440;2023-12-20T14:25:05;3.17;;;1.20;;
78072;SDS011;67281;48.770;11.440;2023-12-20T14:27:33;5.17;;;1.43;;
78072;SDS011;67281;48.770;11.440;2023-12-20T14:30:00;6.50;;;1.50;;
78072;SDS011;67281;48.770;11.440;2023-12-20T14:32:27;4.50;;;1.73;;
78072;SDS011;67281;48.770;11.440;2023-12-20T14:34:54;4.07;;;1.90;;
78072;SDS011;67281;48.770;11.440;2023-12-20T14:37:22;3.83;;;1.83;;
78072;SDS011;67281;48.770;11.440;2023-12-20T14:39:49;2.80;;;1.20;;
78072;SDS011;67281;48.770;11.440;2023-12-20T14:42:16;2.93;;;1.30;;